< < Back
Terminal Aerodrome Forecast


Current Version              Previous Versions:   1  2  3  4  5  6  7  8  9  

Terminal Aerodrome Forecast

712
FTUS42 KFFC 291131
TAFFTY
TAF
KFTY 291131Z 2912/3012 00000KT P6SM SKC
     FM291400 11007KT P6SM SKC
     FM291700 15008KT P6SM SKC
     FM292000 18008KT P6SM SCT050
     FM300200 17008KT P6SM BKN035
     FM300800 20007KT P6SM OVC025
     FM301100 22010KT P6SM OVC012=

Latest METAR

343
SAUS70 KWBC 291700 RRA
MTRFTY
METAR KFTY 291653Z VRB06KT 10SM CLR 12/M09 A3038 RMK AO2 SLP288
T01171094


USA.gov is the U.S. government's official web portal to all federal, state and local government web resources and services.